sensor_id;sensor_type;location;lat;lon;timestamp;P1;durP1;ratioP1;P2;durP2;ratioP2
81223;SDS011;70698;44.402;18.522;2023-09-07T00:01:17;35.13;;;9.65;;
81223;SDS011;70698;44.402;18.522;2023-09-07T00:03:49;55.72;;;10.13;;
81223;SDS011;70698;44.402;18.522;2023-09-07T00:06:15;52.63;;;10.35;;
81223;SDS011;70698;44.402;18.522;2023-09-07T00:08:40;61.05;;;11.63;;
81223;SDS011;70698;44.402;18.522;2023-09-07T00:11:09;61.72;;;10.95;;
81223;SDS011;70698;44.402;18.522;2023-09-07T00:13:35;44.15;;;10.75;;
81223;SDS011;70698;44.402;18.522;2023-09-07T00:16:03;56.58;;;10.63;;
81223;SDS011;70698;44.402;18.522;2023-09-07T00:18:36;54.50;;;10.67;;
81223;SDS011;70698;44.402;18.522;2023-09-07T00:21:02;50.40;;;10.27;;
81223;SDS011;70698;44.402;18.522;2023-09-07T00:23:28;43.22;;;9.88;;
81223;SDS011;70698;44.402;18.522;2023-09-07T00:25:58;60.42;;;10.52;;
81223;SDS011;70698;44.402;18.522;2023-09-07T00:28:27;55.30;;;11.27;;
81223;SDS011;70698;44.402;18.522;2023-09-07T00:30:56;40.05;;;10.90;;
81223;SDS011;70698;44.402;18.522;2023-09-07T00:33:22;42.60;;;10.00;;
81223;SDS011;70698;44.402;18.522;2023-09-07T00:35:48;32.50;;;9.63;;
81223;SDS011;70698;44.402;18.522;2023-09-07T00:38:13;35.97;;;9.32;;
81223;SDS011;70698;44.402;18.522;2023-09-07T00:40:42;34.22;;;9.63;;
81223;SDS011;70698;44.402;18.522;2023-09-07T00:43:09;40.38;;;10.48;;
81223;SDS011;70698;44.402;18.522;2023-09-07T00:48:04;39.03;;;9.73;;
81223;SDS011;70698;44.402;18.522;2023-09-07T00:50:30;35.33;;;9.88;;
81223;SDS011;70698;44.402;18.522;2023-09-07T00:52:56;38.45;;;9.65;;
81223;SDS011;70698;44.402;18.522;2023-09-07T00:57:53;32.58;;;9.10;;
81223;SDS011;70698;44.402;18.522;2023-09-07T01:00:20;40.15;;;10.10;;
81223;SDS011;70698;44.402;18.522;2023-09-07T01:02:46;37.65;;;9.23;;
81223;SDS011;70698;44.402;18.522;2023-09-07T01:05:12;35.85;;;9.68;;
81223;SDS011;70698;44.402;18.522;2023-09-07T01:07:40;36.00;;;9.70;;
81223;SDS011;70698;44.402;18.522;2023-09-07T01:10:11;32.00;;;9.82;;
81223;SDS011;70698;44.402;18.522;2023-09-07T01:12:39;41.10;;;9.55;;
81223;SDS011;70698;44.402;18.522;2023-09-07T01:15:05;38.90;;;10.93;;
81223;SDS011;70698;44.402;18.522;2023-09-07T01:17:32;41.72;;;9.55;;
81223;SDS011;70698;44.402;18.522;2023-09-07T01:19:59;35.17;;;9.57;;
81223;SDS011;70698;44.402;18.522;2023-09-07T01:22:31;38.53;;;9.75;;
81223;SDS011;70698;44.402;18.522;2023-09-07T01:24:57;43.70;;;10.63;;
81223;SDS011;70698;44.402;18.522;2023-09-07T01:29:51;44.55;;;10.30;;
81223;SDS011;70698;44.402;18.522;2023-09-07T01:32:17;42.50;;;10.25;;
81223;SDS011;70698;44.402;18.522;2023-09-07T01:34:43;46.17;;;10.38;;
81223;SDS011;70698;44.402;18.522;2023-09-07T01:37:08;42.00;;;10.15;;
81223;SDS011;70698;44.402;18.522;2023-09-07T01:39:35;43.28;;;10.35;;
81223;SDS011;70698;44.402;18.522;2023-09-07T01:42:01;37.92;;;10.15;;
81223;SDS011;70698;44.402;18.522;2023-09-07T01:44:27;34.35;;;9.80;;
81223;SDS011;70698;44.402;18.522;2023-09-07T01:46:52;43.92;;;11.05;;
81223;SDS011;70698;44.402;18.522;2023-09-07T01:49:18;37.58;;;9.75;;
81223;SDS011;70698;44.402;18.522;2023-09-07T01:51:43;42.58;;;9.75;;
81223;SDS011;70698;44.402;18.522;2023-09-07T01:54:09;31.63;;;9.13;;
81223;SDS011;70698;44.402;18.522;2023-09-07T01:56:36;37.67;;;9.27;;
81223;SDS011;70698;44.402;18.522;2023-09-07T01:59:04;36.85;;;9.73;;
81223;SDS011;70698;44.402;18.522;2023-09-07T02:01:30;39.92;;;10.00;;
81223;SDS011;70698;44.402;18.522;2023-09-07T02:03:57;40.05;;;10.25;;
81223;SDS011;70698;44.402;18.522;2023-09-07T02:06:23;32.92;;;9.63;;
81223;SDS011;70698;44.402;18.522;2023-09-07T02:08:48;36.17;;;9.05;;
81223;SDS011;70698;44.402;18.522;2023-09-07T02:11:14;24.42;;;8.45;;
81223;SDS011;70698;44.402;18.522;2023-09-07T02:13:45;23.55;;;9.10;;
81223;SDS011;70698;44.402;18.522;2023-09-07T02:16:12;37.25;;;24.48;;
81223;SDS011;70698;44.402;18.522;2023-09-07T02:18:37;45.63;;;11.90;;
81223;SDS011;70698;44.402;18.522;2023-09-07T02:21:05;30.50;;;9.53;;
81223;SDS011;70698;44.402;18.522;2023-09-07T02:23:34;30.80;;;9.18;;
81223;SDS011;70698;44.402;18.522;2023-09-07T02:26:00;35.25;;;9.50;;
81223;SDS011;70698;44.402;18.522;2023-09-07T02:28:26;33.25;;;9.55;;
81223;SDS011;70698;44.402;18.522;2023-09-07T02:30:52;35.72;;;9.10;;
81223;SDS011;70698;44.402;18.522;2023-09-07T02:33:18;29.70;;;9.65;;
81223;SDS011;70698;44.402;18.522;2023-09-07T02:35:44;31.13;;;9.43;;
81223;SDS011;70698;44.402;18.522;2023-09-07T02:38:10;36.47;;;9.80;;
81223;SDS011;70698;44.402;18.522;2023-09-07T02:40:39;37.13;;;10.15;;
81223;SDS011;70698;44.402;18.522;2023-09-07T02:43:06;30.27;;;9.43;;
81223;SDS011;70698;44.402;18.522;2023-09-07T02:45:32;29.58;;;9.43;;
81223;SDS011;70698;44.402;18.522;2023-09-07T02:47:57;30.83;;;9.32;;
81223;SDS011;70698;44.402;18.522;2023-09-07T02:50:23;29.95;;;10.02;;
81223;SDS011;70698;44.402;18.522;2023-09-07T02:52:49;23.70;;;9.65;;
81223;SDS011;70698;44.402;18.522;2023-09-07T02:55:14;20.67;;;9.13;;
81223;SDS011;70698;44.402;18.522;2023-09-07T02:57:41;21.20;;;11.07;;
81223;SDS011;70698;44.402;18.522;2023-09-07T03:00:07;15.55;;;9.32;;
81223;SDS011;70698;44.402;18.522;2023-09-07T03:05:04;18.30;;;9.40;;
81223;SDS011;70698;44.402;18.522;2023-09-07T03:07:33;21.25;;;8.77;;
81223;SDS011;70698;44.402;18.522;2023-09-07T03:09:59;14.63;;;8.70;;
81223;SDS011;70698;44.402;18.522;2023-09-07T03:12:26;15.13;;;8.23;;
81223;SDS011;70698;44.402;18.522;2023-09-07T03:14:53;12.85;;;8.60;;
81223;SDS011;70698;44.402;18.522;2023-09-07T03:17:19;16.35;;;8.85;;
81223;SDS011;70698;44.402;18.522;2023-09-07T03:19:48;12.50;;;8.55;;
81223;SDS011;70698;44.402;18.522;2023-09-07T03:22:14;14.48;;;8.75;;
81223;SDS011;70698;44.402;18.522;2023-09-07T03:24:40;16.23;;;9.55;;
81223;SDS011;70698;44.402;18.522;2023-09-07T03:27:06;13.18;;;8.23;;
81223;SDS011;70698;44.402;18.522;2023-09-07T03:29:32;11.63;;;8.00;;
81223;SDS011;70698;44.402;18.522;2023-09-07T03:32:02;12.90;;;8.07;;
81223;SDS011;70698;44.402;18.522;2023-09-07T03:34:28;11.18;;;8.30;;
81223;SDS011;70698;44.402;18.522;2023-09-07T03:36:54;13.95;;;9.18;;
81223;SDS011;70698;44.402;18.522;2023-09-07T03:39:20;14.65;;;9.20;;
81223;SDS011;70698;44.402;18.522;2023-09-07T03:41:48;12.80;;;8.13;;
81223;SDS011;70698;44.402;18.522;2023-09-07T03:44:14;11.68;;;7.78;;
81223;SDS011;70698;44.402;18.522;2023-09-07T03:46:40;10.38;;;7.70;;
81223;SDS011;70698;44.402;18.522;2023-09-07T03:49:07;13.90;;;8.27;;
81223;SDS011;70698;44.402;18.522;2023-09-07T03:51:32;16.48;;;8.90;;
81223;SDS011;70698;44.402;18.522;2023-09-07T03:53:58;12.73;;;8.40;;
81223;SDS011;70698;44.402;18.522;2023-09-07T03:56:24;12.73;;;8.35;;
81223;SDS011;70698;44.402;18.522;2023-09-07T03:58:50;11.52;;;8.43;;
81223;SDS011;70698;44.402;18.522;2023-09-07T04:01:16;10.70;;;8.40;;
81223;SDS011;70698;44.402;18.522;2023-09-07T04:03:42;11.00;;;7.88;;
81223;SDS011;70698;44.402;18.522;2023-09-07T04:06:07;10.98;;;8.43;;
81223;SDS011;70698;44.402;18.522;2023-09-07T04:08:33;12.15;;;8.60;;
81223;SDS011;70698;44.402;18.522;2023-09-07T04:11:02;11.63;;;8.68;;
81223;SDS011;70698;44.402;18.522;2023-09-07T04:13:29;10.95;;;8.18;;
81223;SDS011;70698;44.402;18.522;2023-09-07T04:15:54;11.63;;;8.00;;
81223;SDS011;70698;44.402;18.522;2023-09-07T04:18:20;12.32;;;8.45;;
81223;SDS011;70698;44.402;18.522;2023-09-07T04:20:46;11.68;;;8.75;;
81223;SDS011;70698;44.402;18.522;2023-09-07T04:23:12;11.45;;;8.25;;
81223;SDS011;70698;44.402;18.522;2023-09-07T04:25:38;11.95;;;8.68;;
81223;SDS011;70698;44.402;18.522;2023-09-07T04:28:05;10.65;;;8.18;;
81223;SDS011;70698;44.402;18.522;2023-09-07T04:30:31;10.98;;;8.25;;
81223;SDS011;70698;44.402;18.522;2023-09-07T04:32:58;25.35;;;10.25;;
81223;SDS011;70698;44.402;18.522;2023-09-07T04:35:29;11.57;;;8.55;;
81223;SDS011;70698;44.402;18.522;2023-09-07T04:37:56;14.43;;;9.20;;
81223;SDS011;70698;44.402;18.522;2023-09-07T04:40:22;14.48;;;8.70;;
81223;SDS011;70698;44.402;18.522;2023-09-07T04:42:49;11.23;;;8.68;;
81223;SDS011;70698;44.402;18.522;2023-09-07T04:45:14;11.40;;;8.32;;
81223;SDS011;70698;44.402;18.522;2023-09-07T04:47:40;11.98;;;8.70;;
81223;SDS011;70698;44.402;18.522;2023-09-07T04:50:06;11.38;;;8.90;;
81223;SDS011;70698;44.402;18.522;2023-09-07T04:52:32;12.02;;;8.82;;
81223;SDS011;70698;44.402;18.522;2023-09-07T04:54:58;13.30;;;9.32;;
81223;SDS011;70698;44.402;18.522;2023-09-07T04:57:23;11.40;;;9.02;;
81223;SDS011;70698;44.402;18.522;2023-09-07T04:59:49;13.15;;;9.60;;
81223;SDS011;70698;44.402;18.522;2023-09-07T05:02:15;15.70;;;9.60;;
81223;SDS011;70698;44.402;18.522;2023-09-07T05:04:40;13.57;;;9.40;;
81223;SDS011;70698;44.402;18.522;2023-09-07T05:07:06;11.80;;;9.02;;
81223;SDS011;70698;44.402;18.522;2023-09-07T05:09:32;16.90;;;10.13;;
81223;SDS011;70698;44.402;18.522;2023-09-07T05:11:58;14.95;;;9.13;;
81223;SDS011;70698;44.402;18.522;2023-09-07T05:14:25;16.05;;;8.90;;
81223;SDS011;70698;44.402;18.522;2023-09-07T05:16:51;17.33;;;9.23;;
81223;SDS011;70698;44.402;18.522;2023-09-07T05:19:18;16.75;;;9.43;;
81223;SDS011;70698;44.402;18.522;2023-09-07T05:21:46;11.20;;;8.85;;
81223;SDS011;70698;44.402;18.522;2023-09-07T05:24:13;14.70;;;9.32;;
81223;SDS011;70698;44.402;18.522;2023-09-07T05:26:39;13.13;;;9.90;;
81223;SDS011;70698;44.402;18.522;2023-09-07T05:29:06;13.00;;;9.00;;
81223;SDS011;70698;44.402;18.522;2023-09-07T05:31:31;11.73;;;8.98;;
81223;SDS011;70698;44.402;18.522;2023-09-07T05:33:57;16.52;;;10.38;;
81223;SDS011;70698;44.402;18.522;2023-09-07T05:36:23;14.25;;;9.43;;
81223;SDS011;70698;44.402;18.522;2023-09-07T05:38:48;15.40;;;9.45;;
81223;SDS011;70698;44.402;18.522;2023-09-07T05:41:14;13.95;;;9.02;;
81223;SDS011;70698;44.402;18.522;2023-09-07T05:43:40;14.00;;;10.30;;
81223;SDS011;70698;44.402;18.522;2023-09-07T05:46:06;14.57;;;10.40;;
81223;SDS011;70698;44.402;18.522;2023-09-07T05:48:32;15.38;;;10.27;;
81223;SDS011;70698;44.402;18.522;2023-09-07T05:50:57;13.07;;;10.73;;
81223;SDS011;70698;44.402;18.522;2023-09-07T05:53:23;16.05;;;11.35;;
81223;SDS011;70698;44.402;18.522;2023-09-07T05:55:50;21.42;;;13.55;;
81223;SDS011;70698;44.402;18.522;2023-09-07T05:58:16;22.85;;;13.15;;
81223;SDS011;70698;44.402;18.522;2023-09-07T06:00:43;24.23;;;12.40;;
81223;SDS011;70698;44.402;18.522;2023-09-07T06:03:09;18.15;;;11.90;;
81223;SDS011;70698;44.402;18.522;2023-09-07T06:05:35;16.38;;;11.50;;
81223;SDS011;70698;44.402;18.522;2023-09-07T06:08:03;17.33;;;11.27;;
81223;SDS011;70698;44.402;18.522;2023-09-07T06:10:29;15.75;;;11.43;;
81223;SDS011;70698;44.402;18.522;2023-09-07T06:12:56;15.80;;;11.20;;
81223;SDS011;70698;44.402;18.522;2023-09-07T06:15:24;19.83;;;12.30;;
81223;SDS011;70698;44.402;18.522;2023-09-07T06:17:49;20.42;;;12.45;;
81223;SDS011;70698;44.402;18.522;2023-09-07T06:20:15;16.52;;;11.23;;
81223;SDS011;70698;44.402;18.522;2023-09-07T06:22:42;19.47;;;11.83;;
81223;SDS011;70698;44.402;18.522;2023-09-07T06:25:10;17.40;;;11.60;;
81223;SDS011;70698;44.402;18.522;2023-09-07T06:27:36;15.40;;;11.30;;
81223;SDS011;70698;44.402;18.522;2023-09-07T06:30:01;17.85;;;10.50;;
81223;SDS011;70698;44.402;18.522;2023-09-07T06:32:29;17.48;;;11.00;;
81223;SDS011;70698;44.402;18.522;2023-09-07T06:34:55;15.65;;;10.57;;
81223;SDS011;70698;44.402;18.522;2023-09-07T06:37:20;12.57;;;10.57;;
81223;SDS011;70698;44.402;18.522;2023-09-07T06:39:46;16.20;;;10.57;;
81223;SDS011;70698;44.402;18.522;2023-09-07T06:42:12;14.93;;;10.15;;
81223;SDS011;70698;44.402;18.522;2023-09-07T06:44:44;13.18;;;9.68;;
81223;SDS011;70698;44.402;18.522;2023-09-07T06:47:11;13.85;;;9.25;;
81223;SDS011;70698;44.402;18.522;2023-09-07T06:49:39;15.18;;;9.73;;
81223;SDS011;70698;44.402;18.522;2023-09-07T06:52:06;13.73;;;9.40;;
81223;SDS011;70698;44.402;18.522;2023-09-07T06:54:33;10.52;;;8.73;;
81223;SDS011;70698;44.402;18.522;2023-09-07T06:56:59;12.13;;;9.02;;
81223;SDS011;70698;44.402;18.522;2023-09-07T06:59:25;13.98;;;10.32;;
81223;SDS011;70698;44.402;18.522;2023-09-07T07:01:50;18.70;;;11.02;;
81223;SDS011;70698;44.402;18.522;2023-09-07T07:04:16;14.85;;;10.23;;
81223;SDS011;70698;44.402;18.522;2023-09-07T07:06:42;16.15;;;11.10;;
81223;SDS011;70698;44.402;18.522;2023-09-07T07:09:07;20.88;;;12.80;;
81223;SDS011;70698;44.402;18.522;2023-09-07T07:11:35;14.85;;;11.73;;
81223;SDS011;70698;44.402;18.522;2023-09-07T07:14:01;18.10;;;12.52;;
81223;SDS011;70698;44.402;18.522;2023-09-07T07:16:27;22.38;;;13.73;;
81223;SDS011;70698;44.402;18.522;2023-09-07T07:18:53;21.52;;;15.02;;
81223;SDS011;70698;44.402;18.522;2023-09-07T07:21:18;23.65;;;16.63;;
81223;SDS011;70698;44.402;18.522;2023-09-07T07:23:44;25.83;;;17.58;;
81223;SDS011;70698;44.402;18.522;2023-09-07T07:26:10;25.52;;;17.90;;
81223;SDS011;70698;44.402;18.522;2023-09-07T07:28:35;25.88;;;16.88;;
81223;SDS011;70698;44.402;18.522;2023-09-07T07:31:08;26.83;;;17.35;;
81223;SDS011;70698;44.402;18.522;2023-09-07T07:33:36;23.27;;;15.50;;
81223;SDS011;70698;44.402;18.522;2023-09-07T07:36:03;23.50;;;15.80;;
81223;SDS011;70698;44.402;18.522;2023-09-07T07:38:29;20.42;;;15.30;;
81223;SDS011;70698;44.402;18.522;2023-09-07T07:40:55;17.35;;;12.27;;
81223;SDS011;70698;44.402;18.522;2023-09-07T07:43:21;16.10;;;11.68;;
81223;SDS011;70698;44.402;18.522;2023-09-07T07:45:47;14.80;;;11.05;;
81223;SDS011;70698;44.402;18.522;2023-09-07T07:48:13;14.23;;;10.20;;
81223;SDS011;70698;44.402;18.522;2023-09-07T07:50:41;19.65;;;10.73;;
81223;SDS011;70698;44.402;18.522;2023-09-07T07:53:08;13.95;;;10.65;;
81223;SDS011;70698;44.402;18.522;2023-09-07T07:55:35;14.60;;;10.48;;
81223;SDS011;70698;44.402;18.522;2023-09-07T07:58:08;14.73;;;10.70;;
81223;SDS011;70698;44.402;18.522;2023-09-07T08:00:36;14.80;;;10.95;;
81223;SDS011;70698;44.402;18.522;2023-09-07T08:03:06;18.90;;;10.43;;
81223;SDS011;70698;44.402;18.522;2023-09-07T08:05:34;12.02;;;8.45;;
81223;SDS011;70698;44.402;18.522;2023-09-07T08:08:00;15.15;;;8.98;;
81223;SDS011;70698;44.402;18.522;2023-09-07T08:10:27;11.20;;;8.15;;
81223;SDS011;70698;44.402;18.522;2023-09-07T08:12:53;10.25;;;7.30;;
81223;SDS011;70698;44.402;18.522;2023-09-07T08:15:20;10.90;;;7.67;;
81223;SDS011;70698;44.402;18.522;2023-09-07T08:17:49;13.20;;;8.05;;
81223;SDS011;70698;44.402;18.522;2023-09-07T08:20:15;11.23;;;7.80;;
81223;SDS011;70698;44.402;18.522;2023-09-07T08:22:41;9.80;;;7.93;;
81223;SDS011;70698;44.402;18.522;2023-09-07T08:25:09;9.13;;;7.07;;
81223;SDS011;70698;44.402;18.522;2023-09-07T08:27:35;8.40;;;7.20;;
81223;SDS011;70698;44.402;18.522;2023-09-07T08:30:01;11.43;;;7.93;;
81223;SDS011;70698;44.402;18.522;2023-09-07T08:32:27;10.85;;;7.80;;
81223;SDS011;70698;44.402;18.522;2023-09-07T08:34:52;10.27;;;8.35;;
81223;SDS011;70698;44.402;18.522;2023-09-07T08:37:21;14.85;;;9.65;;
81223;SDS011;70698;44.402;18.522;2023-09-07T08:39:48;11.05;;;8.30;;
81223;SDS011;70698;44.402;18.522;2023-09-07T08:42:13;10.15;;;8.90;;
81223;SDS011;70698;44.402;18.522;2023-09-07T08:44:39;10.15;;;8.70;;
81223;SDS011;70698;44.402;18.522;2023-09-07T08:47:07;12.30;;;8.70;;
81223;SDS011;70698;44.402;18.522;2023-09-07T08:49:34;13.23;;;8.88;;
81223;SDS011;70698;44.402;18.522;2023-09-07T08:52:01;11.68;;;9.20;;
81223;SDS011;70698;44.402;18.522;2023-09-07T08:54:29;13.45;;;9.77;;
81223;SDS011;70698;44.402;18.522;2023-09-07T08:56:57;12.70;;;8.70;;
81223;SDS011;70698;44.402;18.522;2023-09-07T08:59:23;11.65;;;8.68;;
81223;SDS011;70698;44.402;18.522;2023-09-07T09:01:49;10.98;;;8.60;;
81223;SDS011;70698;44.402;18.522;2023-09-07T09:04:15;11.95;;;9.23;;
81223;SDS011;70698;44.402;18.522;2023-09-07T09:06:41;12.68;;;8.48;;
81223;SDS011;70698;44.402;18.522;2023-09-07T09:09:06;12.50;;;8.10;;
81223;SDS011;70698;44.402;18.522;2023-09-07T09:11:32;10.70;;;8.32;;
81223;SDS011;70698;44.402;18.522;2023-09-07T09:13:57;11.20;;;8.63;;
81223;SDS011;70698;44.402;18.522;2023-09-07T09:16:23;10.60;;;7.90;;
81223;SDS011;70698;44.402;18.522;2023-09-07T09:18:49;11.20;;;8.40;;
81223;SDS011;70698;44.402;18.522;2023-09-07T09:21:19;11.05;;;7.78;;
81223;SDS011;70698;44.402;18.522;2023-09-07T09:23:47;10.43;;;7.93;;
81223;SDS011;70698;44.402;18.522;2023-09-07T09:26:15;13.95;;;8.38;;
81223;SDS011;70698;44.402;18.522;2023-09-07T09:28:40;13.60;;;8.00;;
81223;SDS011;70698;44.402;18.522;2023-09-07T09:31:07;10.30;;;7.75;;
81223;SDS011;70698;44.402;18.522;2023-09-07T09:33:38;9.85;;;7.57;;
81223;SDS011;70698;44.402;18.522;2023-09-07T09:36:05;14.10;;;8.52;;
81223;SDS011;70698;44.402;18.522;2023-09-07T09:38:34;11.87;;;8.23;;
81223;SDS011;70698;44.402;18.522;2023-09-07T09:41:00;11.30;;;8.02;;
81223;SDS011;70698;44.402;18.522;2023-09-07T09:43:28;10.27;;;7.82;;
81223;SDS011;70698;44.402;18.522;2023-09-07T09:45:54;12.75;;;8.00;;
81223;SDS011;70698;44.402;18.522;2023-09-07T09:48:20;10.65;;;7.90;;
81223;SDS011;70698;44.402;18.522;2023-09-07T09:50:46;13.80;;;8.90;;
81223;SDS011;70698;44.402;18.522;2023-09-07T09:53:17;10.43;;;7.60;;
81223;SDS011;70698;44.402;18.522;2023-09-07T09:55:47;8.55;;;7.32;;
81223;SDS011;70698;44.402;18.522;2023-09-07T09:58:13;8.98;;;6.85;;
81223;SDS011;70698;44.402;18.522;2023-09-07T10:00:46;8.30;;;6.82;;
81223;SDS011;70698;44.402;18.522;2023-09-07T10:03:21;9.20;;;7.05;;
81223;SDS011;70698;44.402;18.522;2023-09-07T10:05:52;9.82;;;6.90;;
81223;SDS011;70698;44.402;18.522;2023-09-07T10:08:18;8.63;;;6.82;;
81223;SDS011;70698;44.402;18.522;2023-09-07T10:10:48;11.43;;;6.43;;
81223;SDS011;70698;44.402;18.522;2023-09-07T10:13:28;9.20;;;6.50;;
81223;SDS011;70698;44.402;18.522;2023-09-07T10:16:06;8.35;;;6.10;;
81223;SDS011;70698;44.402;18.522;2023-09-07T10:18:36;8.80;;;6.43;;
81223;SDS011;70698;44.402;18.522;2023-09-07T10:26:02;7.30;;;6.60;;
81223;SDS011;70698;44.402;18.522;2023-09-07T10:28:32;11.50;;;6.93;;
81223;SDS011;70698;44.402;18.522;2023-09-07T10:31:05;33.40;;;13.70;;
81223;SDS011;70698;44.402;18.522;2023-09-07T10:33:32;12.63;;;7.78;;
81223;SDS011;70698;44.402;18.522;2023-09-07T10:36:01;9.40;;;6.30;;
81223;SDS011;70698;44.402;18.522;2023-09-07T10:38:28;9.45;;;6.20;;
81223;SDS011;70698;44.402;18.522;2023-09-07T10:40:57;9.02;;;6.10;;
81223;SDS011;70698;44.402;18.522;2023-09-07T10:43:25;7.93;;;5.55;;
81223;SDS011;70698;44.402;18.522;2023-09-07T10:45:52;9.27;;;5.90;;
81223;SDS011;70698;44.402;18.522;2023-09-07T10:48:18;7.03;;;5.90;;
81223;SDS011;70698;44.402;18.522;2023-09-07T10:50:45;7.32;;;5.45;;
81223;SDS011;70698;44.402;18.522;2023-09-07T10:53:12;6.73;;;5.70;;
81223;SDS011;70698;44.402;18.522;2023-09-07T10:55:39;8.35;;;5.35;;
81223;SDS011;70698;44.402;18.522;2023-09-07T10:58:06;13.48;;;6.40;;
81223;SDS011;70698;44.402;18.522;2023-09-07T11:00:34;11.57;;;5.90;;
81223;SDS011;70698;44.402;18.522;2023-09-07T11:03:06;7.22;;;5.88;;
81223;SDS011;70698;44.402;18.522;2023-09-07T11:05:33;9.13;;;5.68;;
81223;SDS011;70698;44.402;18.522;2023-09-07T11:08:02;10.13;;;5.90;;
81223;SDS011;70698;44.402;18.522;2023-09-07T11:10:32;9.75;;;7.53;;
81223;SDS011;70698;44.402;18.522;2023-09-07T11:13:01;9.00;;;6.05;;
81223;SDS011;70698;44.402;18.522;2023-09-07T11:15:28;11.30;;;7.22;;
81223;SDS011;70698;44.402;18.522;2023-09-07T11:17:55;13.20;;;7.20;;
81223;SDS011;70698;44.402;18.522;2023-09-07T11:20:21;10.20;;;6.20;;
81223;SDS011;70698;44.402;18.522;2023-09-07T11:22:48;12.63;;;7.38;;
81223;SDS011;70698;44.402;18.522;2023-09-07T11:25:14;7.63;;;6.15;;
81223;SDS011;70698;44.402;18.522;2023-09-07T11:27:40;10.40;;;6.77;;
81223;SDS011;70698;44.402;18.522;2023-09-07T11:30:06;12.52;;;8.18;;
81223;SDS011;70698;44.402;18.522;2023-09-07T11:32:34;10.93;;;6.78;;
81223;SDS011;70698;44.402;18.522;2023-09-07T11:34:59;8.75;;;5.80;;
81223;SDS011;70698;44.402;18.522;2023-09-07T11:37:25;7.20;;;6.10;;
81223;SDS011;70698;44.402;18.522;2023-09-07T11:39:51;7.68;;;5.60;;
81223;SDS011;70698;44.402;18.522;2023-09-07T11:42:17;10.70;;;6.10;;
81223;SDS011;70698;44.402;18.522;2023-09-07T11:44:42;7.28;;;5.82;;
81223;SDS011;70698;44.402;18.522;2023-09-07T11:47:08;9.35;;;5.85;;
81223;SDS011;70698;44.402;18.522;2023-09-07T11:49:34;12.63;;;6.63;;
81223;SDS011;70698;44.402;18.522;2023-09-07T11:52:00;10.13;;;5.93;;
81223;SDS011;70698;44.402;18.522;2023-09-07T11:54:26;7.03;;;5.93;;
81223;SDS011;70698;44.402;18.522;2023-09-07T11:56:52;9.45;;;6.00;;
81223;SDS011;70698;44.402;18.522;2023-09-07T11:59:18;11.18;;;5.65;;
81223;SDS011;70698;44.402;18.522;2023-09-07T12:01:43;9.02;;;6.15;;
81223;SDS011;70698;44.402;18.522;2023-09-07T12:04:09;8.57;;;6.22;;
81223;SDS011;70698;44.402;18.522;2023-09-07T12:06:35;9.68;;;5.95;;
81223;SDS011;70698;44.402;18.522;2023-09-07T12:09:02;10.38;;;6.18;;
81223;SDS011;70698;44.402;18.522;2023-09-07T12:11:29;7.88;;;5.97;;
81223;SDS011;70698;44.402;18.522;2023-09-07T12:13:56;6.97;;;5.60;;
81223;SDS011;70698;44.402;18.522;2023-09-07T12:16:21;7.32;;;5.88;;
81223;SDS011;70698;44.402;18.522;2023-09-07T12:18:47;8.82;;;5.80;;
81223;SDS011;70698;44.402;18.522;2023-09-07T12:21:13;47.92;;;7.47;;
81223;SDS011;70698;44.402;18.522;2023-09-07T12:23:39;6.63;;;5.32;;
81223;SDS011;70698;44.402;18.522;2023-09-07T12:26:04;7.40;;;5.97;;
81223;SDS011;70698;44.402;18.522;2023-09-07T12:28:30;8.82;;;6.35;;
81223;SDS011;70698;44.402;18.522;2023-09-07T12:30:56;7.70;;;5.93;;
81223;SDS011;70698;44.402;18.522;2023-09-07T12:33:23;6.93;;;5.53;;
81223;SDS011;70698;44.402;18.522;2023-09-07T12:35:49;6.93;;;5.95;;
81223;SDS011;70698;44.402;18.522;2023-09-07T12:38:15;7.65;;;5.50;;
81223;SDS011;70698;44.402;18.522;2023-09-07T12:40:43;9.27;;;5.38;;
81223;SDS011;70698;44.402;18.522;2023-09-07T12:43:09;6.80;;;6.10;;
81223;SDS011;70698;44.402;18.522;2023-09-07T12:45:35;9.32;;;5.70;;
81223;SDS011;70698;44.402;18.522;2023-09-07T12:48:01;8.90;;;5.25;;
81223;SDS011;70698;44.402;18.522;2023-09-07T12:50:27;9.10;;;5.43;;
81223;SDS011;70698;44.402;18.522;2023-09-07T12:52:53;6.45;;;5.10;;
81223;SDS011;70698;44.402;18.522;2023-09-07T12:55:19;6.68;;;5.40;;
81223;SDS011;70698;44.402;18.522;2023-09-07T12:57:45;7.32;;;5.63;;
81223;SDS011;70698;44.402;18.522;2023-09-07T13:00:11;6.28;;;5.13;;
81223;SDS011;70698;44.402;18.522;2023-09-07T13:02:38;6.40;;;5.43;;
81223;SDS011;70698;44.402;18.522;2023-09-07T13:05:03;7.65;;;5.95;;
81223;SDS011;70698;44.402;18.522;2023-09-07T13:07:33;6.93;;;4.97;;
81223;SDS011;70698;44.402;18.522;2023-09-07T13:10:00;6.90;;;4.88;;
81223;SDS011;70698;44.402;18.522;2023-09-07T13:12:29;5.55;;;5.05;;
81223;SDS011;70698;44.402;18.522;2023-09-07T13:14:56;6.35;;;4.90;;
81223;SDS011;70698;44.402;18.522;2023-09-07T13:17:22;5.68;;;4.55;;
81223;SDS011;70698;44.402;18.522;2023-09-07T13:19:47;8.13;;;5.22;;
81223;SDS011;70698;44.402;18.522;2023-09-07T13:22:13;5.47;;;4.97;;
81223;SDS011;70698;44.402;18.522;2023-09-07T13:24:39;5.60;;;4.80;;
81223;SDS011;70698;44.402;18.522;2023-09-07T13:27:05;8.60;;;5.07;;
81223;SDS011;70698;44.402;18.522;2023-09-07T13:29:31;7.32;;;4.95;;
81223;SDS011;70698;44.402;18.522;2023-09-07T13:31:57;5.20;;;4.70;;
81223;SDS011;70698;44.402;18.522;2023-09-07T13:34:25;7.57;;;4.90;;
81223;SDS011;70698;44.402;18.522;2023-09-07T13:36:50;8.63;;;4.80;;
81223;SDS011;70698;44.402;18.522;2023-09-07T13:39:16;6.80;;;4.82;;
81223;SDS011;70698;44.402;18.522;2023-09-07T13:41:42;7.40;;;4.72;;
81223;SDS011;70698;44.402;18.522;2023-09-07T13:44:07;6.85;;;5.22;;
81223;SDS011;70698;44.402;18.522;2023-09-07T13:46:33;6.50;;;4.80;;
81223;SDS011;70698;44.402;18.522;2023-09-07T13:48:58;8.25;;;5.00;;
81223;SDS011;70698;44.402;18.522;2023-09-07T13:51:25;7.37;;;5.27;;
81223;SDS011;70698;44.402;18.522;2023-09-07T13:53:51;5.63;;;4.63;;
81223;SDS011;70698;44.402;18.522;2023-09-07T13:56:20;5.53;;;4.97;;
81223;SDS011;70698;44.402;18.522;2023-09-07T13:58:45;5.85;;;4.80;;
81223;SDS011;70698;44.402;18.522;2023-09-07T14:01:11;12.02;;;5.00;;
81223;SDS011;70698;44.402;18.522;2023-09-07T14:03:37;7.30;;;5.28;;
81223;SDS011;70698;44.402;18.522;2023-09-07T14:06:02;10.80;;;5.57;;
81223;SDS011;70698;44.402;18.522;2023-09-07T14:08:28;7.10;;;4.80;;
81223;SDS011;70698;44.402;18.522;2023-09-07T14:10:55;6.97;;;5.18;;
81223;SDS011;70698;44.402;18.522;2023-09-07T14:13:21;8.77;;;4.60;;
81223;SDS011;70698;44.402;18.522;2023-09-07T14:15:46;9.02;;;4.70;;
81223;SDS011;70698;44.402;18.522;2023-09-07T14:18:12;5.97;;;4.90;;
81223;SDS011;70698;44.402;18.522;2023-09-07T14:20:38;6.47;;;4.80;;
81223;SDS011;70698;44.402;18.522;2023-09-07T14:23:03;6.07;;;4.78;;
81223;SDS011;70698;44.402;18.522;2023-09-07T14:25:29;6.30;;;5.10;;
81223;SDS011;70698;44.402;18.522;2023-09-07T14:27:55;5.95;;;4.97;;
81223;SDS011;70698;44.402;18.522;2023-09-07T14:30:21;8.18;;;5.10;;
81223;SDS011;70698;44.402;18.522;2023-09-07T14:32:46;7.72;;;5.20;;